EW6121 Weather Reports


Display with metric or nautical units.
time (UTC)temp
F
wind
direction
speed
MPH
gust
MPH
rain 1hr
in
rain 24hr
in
rain mn
in
humidity
%
barometer
mb
20191016063137 47 113 0.0 0.0 0.00 0.09 0.00 85 1016.6
20191016061601 47 113 0.0 0.0 0.00 0.09 0.00 85 1016.9
20191016060132 48 113 0.0 0.0 0.00 0.09 0.00 89 1017.0
20191016054619 48 113 0.0 0.0 0.00 0.09 0.00 85 1017.1
20191016053101 48 113 0.0 0.0 0.00 0.09 0.00 84 1017.4
20191016051548 48 113 0.0 0.0 0.00 0.09 0.00 84 1017.6
20191016050104 48 113 0.0 0.0 0.00 0.09 0.00 83 1017.7
20191016044544 48 113 0.0 0.0 0.00 0.09 0.00 83 1017.8
20191016043045 48 113 0.0 0.0 0.00 0.09 0.00 82 1018.0
20191016041551 47 113 0.0 0.0 0.00 0.09 0.00 81 1018.1
20191016040053 47 113 0.0 0.0 0.00 0.09 0.00 80 1018.1
20191016034555 47 113 0.0 0.0 0.00 0.09 0.00 78 1018.1
20191016033039 48 113 0.0 0.0 0.00 0.09 0.00 77 1018.1
20191016031624 48 113 0.0 0.0 0.00 0.09 0.00 77 1018.2
20191016030047 49 113 0.0 0.0 0.00 0.09 0.00 76 1018.2
20191016024534 50 113 0.0 0.0 0.00 0.09 0.09 76 1018.3
20191016023024 50 113 0.0 0.0 0.00 0.09 0.09 76 1018.4
20191016021521 50 113 0.0 0.0 0.00 0.09 0.09 75 1018.4
20191016020055 51 113 0.0 0.0 0.00 0.09 0.09 74 1018.5
20191016014521 51 113 0.0 0.0 0.00 0.09 0.09 74 1018.4
20191016013024 52 156 0.0 0.0 0.00 0.09 0.09 75 1018.4
20191016011517 52 157 0.0 3.0 0.00 0.09 0.09 75 1018.3
20191016010051 53 90 0.0 0.0 0.00 0.09 0.09 75 1018.3
20191016004529 53 146 0.0 1.0 0.00 0.09 0.09 75 1018.2
20191016003036 53 67 0.0 0.0 0.00 0.09 0.09 75 1018.1
20191016001515 53 136 0.0 0.0 0.00 0.09 0.09 75 1017.9
20191016000011 53 136 0.0 0.0 0.00 0.09 0.09 74 1017.7
20191015234533 54 136 0.0 0.0 0.00 0.09 0.09 73 1017.7
20191015233009 54 136 0.0 0.0 0.00 0.09 0.09 72 1017.5
20191015230006 57 159 0.0 0.0 0.00 0.09 0.09 69 1017.2
20191015224506 58 96 0.0 2.0 0.00 0.09 0.09 67 1017.0
20191015223004 59 129 1.0 8.0 0.00 0.09 0.09 67 1016.9
20191015221504 60 98 0.0 4.0 0.00 0.09 0.09 66 1016.7
20191015220006 62 99 0.0 4.0 0.00 0.09 0.09 64 1016.7
20191015214501 63 129 0.0 3.0 0.00 0.09 0.09 59 1016.6
20191015213203 64 170 0.0 7.0 0.00 0.09 0.09 57 1016.3
20191015211654 64 204 0.0 4.0 0.00 0.09 0.09 55 1016.4
20191015210245 64 229 0.0 5.0 0.00 0.09 0.09 55 1016.2
20191015204706 64 199 0.0 1.0 0.00 0.09 0.09 56 1016.1
20191015203213 63 232 0.0 0.0 0.00 0.09 0.09 54 1016.2
20191015201903 64 206 2.0 8.0 0.00 0.09 0.09 51 1016.1
20191015200141 66 234 1.0 10.0 0.00 0.09 0.09 49 1016.1
20191015194654 68 195 0.0 6.0 0.00 0.09 0.09 48 1016.1
20191015193143 68 211 0.0 8.0 0.00 0.09 0.09 52 1016.2
20191015191615 67 260 2.0 16.0 0.00 0.09 0.09 50 1016.2
20191015190112 66 219 0.0 9.0 0.00 0.09 0.09 52 1016.4
20191015184612 65 228 2.0 10.0 0.00 0.09 0.09 51 1016.6
20191015183101 64 111 0.0 12.0 0.00 0.09 0.09 53 1016.5
20191015181651 66 248 3.0 14.0 0.00 0.09 0.09 52 1016.5
20191015180057 65 246 3.0 13.0 0.00 0.09 0.09 55 1016.6
20191015174607 65 229 4.0 13.0 0.00 0.09 0.09 55 1016.9
20191015173155 64 232 1.0 9.0 0.00 0.09 0.09 57 1016.8
20191015171550 62 227 1.0 7.0 0.00 0.09 0.09 62 1017.1
20191015170103 62 262 0.0 12.0 0.00 0.09 0.09 61 1017.1
20191015164635 62 269 2.0 15.0 0.00 0.09 0.09 62 1017.3
20191015163049 62 324 2.0 12.0 0.00 0.09 0.09 63 1017.2
20191015161600 62 282 4.0 15.0 0.00 0.09 0.09 66 1017.3
20191015160043 61 271 4.0 16.0 0.00 0.09 0.09 67 1017.4
20191015154547 59 278 5.0 12.0 0.00 0.09 0.09 76 1017.5